createdAt,value
2022-09-16T00:00:44.828Z,625.72
2022-09-16T00:03:13.940Z,643.67
2022-09-16T00:05:44.282Z,636.13
2022-09-16T00:08:12.797Z,618.60
2022-09-16T00:10:40.951Z,609.63
2022-09-16T00:13:08.805Z,619.92
2022-09-16T00:15:36.657Z,621.72
2022-09-16T00:18:05.168Z,615.67
2022-09-16T00:20:33.448Z,615.50
2022-09-16T00:23:03.054Z,627.00
2022-09-16T00:25:31.208Z,610.70
2022-09-16T00:27:59.030Z,615.72
2022-09-16T00:30:27.069Z,603.70
2022-09-16T00:32:55.088Z,626.83
2022-09-16T00:35:22.961Z,609.40
2022-09-16T00:37:51.118Z,609.30
2022-09-16T00:40:20.648Z,608.08
2022-09-16T00:42:49.228Z,612.97
2022-09-16T00:45:19.089Z,624.75
2022-09-16T00:47:50.476Z,631.38
2022-09-16T00:50:22.099Z,631.58
2022-09-16T00:52:51.535Z,628.17
2022-09-16T00:55:22.989Z,629.75
2022-09-16T00:57:51.826Z,620.08
2022-09-16T01:00:19.934Z,612.10
2022-09-16T01:02:48.620Z,608.53
2022-09-16T01:05:18.917Z,621.33
2022-09-16T01:07:48.875Z,624.05
2022-09-16T01:10:20.890Z,616.50
2022-09-16T01:12:51.972Z,592.35
2022-09-16T01:15:20.008Z,609.25
2022-09-16T01:17:58.478Z,610.47
2022-09-16T01:21:02.764Z,624.97
2022-09-16T01:24:05.438Z,630.65
2022-09-16T01:26:56.024Z,606.60
2022-09-16T01:29:54.746Z,614.85
2022-09-16T01:32:31.213Z,611.15
2022-09-16T01:35:04.818Z,604.95
2022-09-16T01:37:39.689Z,617.45
2022-09-16T01:40:12.598Z,625.47
2022-09-16T01:42:47.985Z,616.92
2022-09-16T01:45:20.478Z,618.15
2022-09-16T01:47:56.476Z,602.75
2022-09-16T01:50:26.333Z,619.38
2022-09-16T01:53:01.363Z,630.85
2022-09-16T01:55:33.463Z,636.90
2022-09-16T01:58:05.189Z,638.00
2022-09-16T02:00:34.496Z,636.72
2022-09-16T02:03:07.600Z,620.85
2022-09-16T02:05:38.873Z,633.55
2022-09-16T02:08:09.258Z,622.83
2022-09-16T02:10:40.784Z,632.75
2022-09-16T02:13:13.588Z,649.50
2022-09-16T02:15:43.723Z,646.30
2022-09-16T02:18:15.257Z,648.30
2022-09-16T02:20:44.868Z,643.72
2022-09-16T02:23:16.884Z,659.60
2022-09-16T02:25:46.683Z,644.13
2022-09-16T02:28:18.804Z,649.30
2022-09-16T02:30:50.335Z,652.67
2022-09-16T02:33:20.794Z,644.25
2022-09-16T02:35:52.610Z,648.78
2022-09-16T02:38:24.644Z,644.67
2022-09-16T02:40:55.321Z,652.65
2022-09-16T02:43:23.879Z,646.65
2022-09-16T02:45:55.625Z,649.13
2022-09-16T02:48:30.757Z,645.92
2022-09-16T02:51:03.384Z,647.05
2022-09-16T02:53:38.457Z,639.20
2022-09-16T02:56:12.060Z,648.63
2022-09-16T02:58:39.997Z,641.22
2022-09-16T03:01:08.197Z,650.40
2022-09-16T03:03:37.757Z,646.70
2022-09-16T03:06:16.328Z,644.97
2022-09-16T03:08:45.440Z,645.20
2022-09-16T03:11:29.393Z,645.28
2022-09-16T03:14:08.009Z,648.50
2022-09-16T03:16:41.566Z,649.38
2022-09-16T03:19:19.832Z,646.65
2022-09-16T03:21:54.690Z,648.22
2022-09-16T03:24:30.078Z,654.00
2022-09-16T03:27:01.241Z,632.35
2022-09-16T03:29:33.832Z,639.47
2022-09-16T03:32:06.887Z,646.67
2022-09-16T03:34:39.977Z,642.85
2022-09-16T03:37:10.117Z,646.45
2022-09-16T03:39:38.700Z,638.80
2022-09-16T03:42:10.722Z,641.38
2022-09-16T03:44:40.673Z,643.28
2022-09-16T03:47:08.919Z,649.70
2022-09-16T03:49:38.871Z,643.78
2022-09-16T03:52:07.230Z,646.10
2022-09-16T03:54:35.229Z,643.22
2022-09-16T03:57:03.296Z,647.72
2022-09-16T03:59:31.879Z,645.35
2022-09-16T04:01:59.730Z,648.33
2022-09-16T04:04:27.608Z,646.55
2022-09-16T04:06:57.415Z,640.03
2022-09-16T04:09:25.500Z,638.65
2022-09-16T04:11:53.500Z,646.22
2022-09-16T04:14:21.655Z,643.63
2022-09-16T04:16:49.936Z,640.92
2022-09-16T04:19:18.078Z,643.13
2022-09-16T04:21:45.929Z,640.97
2022-09-16T04:24:15.774Z,651.85
2022-09-16T04:26:43.640Z,645.22
2022-09-16T04:29:11.636Z,645.40
2022-09-16T04:31:39.594Z,646.47
2022-09-16T04:34:09.237Z,643.50
2022-09-16T04:36:37.065Z,651.80
2022-09-16T04:39:05.041Z,645.03
2022-09-16T04:41:34.358Z,647.50
2022-09-16T04:44:03.246Z,644.58
2022-09-16T04:46:32.610Z,643.58
2022-09-16T04:49:01.125Z,645.25
2022-09-16T04:51:29.361Z,649.35
2022-09-16T04:53:58.393Z,640.42
2022-09-16T04:56:28.245Z,644.08
2022-09-16T04:58:59.970Z,623.95
2022-09-16T05:01:30.076Z,640.80
2022-09-16T05:04:00.542Z,636.75
2022-09-16T05:06:30.006Z,629.97
2022-09-16T05:08:59.229Z,645.10
2022-09-16T05:11:28.303Z,647.65
2022-09-16T05:13:59.789Z,642.70
2022-09-16T05:16:28.990Z,643.92
2022-09-16T05:18:58.247Z,649.03
2022-09-16T05:21:27.734Z,644.75
2022-09-16T05:23:57.349Z,642.53
2022-09-16T05:26:27.629Z,641.97
2022-09-16T05:28:56.966Z,642.90
2022-09-16T05:31:26.675Z,647.35
2022-09-16T05:33:56.622Z,638.70
2022-09-16T05:36:25.328Z,637.55
2022-09-16T05:39:18.286Z,633.97
2022-09-16T05:41:41.172Z,632.10
2022-09-16T05:44:10.436Z,641.22
2022-09-16T05:46:40.597Z,645.30
2022-09-16T05:49:09.085Z,641.20
2022-09-16T05:51:38.500Z,643.88
2022-09-16T05:54:06.401Z,646.90
2022-09-16T05:56:34.486Z,657.88
2022-09-16T05:59:02.871Z,641.38
2022-09-16T06:01:33.518Z,634.65
2022-09-16T06:04:03.233Z,639.65
2022-09-16T06:06:32.959Z,639.67
2022-09-16T06:09:03.521Z,638.15
2022-09-16T06:11:31.399Z,633.47
2022-09-16T06:14:01.598Z,634.03
2022-09-16T06:16:33.380Z,642.75
2022-09-16T06:19:02.202Z,645.75
2022-09-16T06:21:30.554Z,642.70
2022-09-16T06:23:59.045Z,626.70
2022-09-16T06:26:28.512Z,638.88
2022-09-16T06:28:56.801Z,644.00
2022-09-16T06:31:26.451Z,647.28
2022-09-16T06:33:56.642Z,646.60
2022-09-16T06:36:27.926Z,656.70
2022-09-16T06:38:55.914Z,642.65
2022-09-16T06:41:24.053Z,659.42
2022-09-16T06:43:52.615Z,655.58
2022-09-16T06:46:22.918Z,655.45
2022-09-16T06:48:52.646Z,650.58
2022-09-16T06:51:23.853Z,641.97
2022-09-16T06:53:53.929Z,647.78
2022-09-16T06:56:23.047Z,647.95
2022-09-16T06:58:53.180Z,643.28
2022-09-16T07:01:22.617Z,644.58
2022-09-16T07:03:52.237Z,661.00
2022-09-16T07:06:33.385Z,648.60
2022-09-16T07:09:11.347Z,653.28
2022-09-16T07:11:40.808Z,648.45
2022-09-16T07:14:10.292Z,644.13
2022-09-16T07:16:38.339Z,658.55
2022-09-16T07:19:06.743Z,647.97
2022-09-16T07:21:35.942Z,649.67
2022-09-16T07:24:04.946Z,653.15
2022-09-16T07:26:34.299Z,658.70
2022-09-16T07:29:03.713Z,647.50
2022-09-16T07:31:33.276Z,647.30
2022-09-16T07:34:04.773Z,655.33
2022-09-16T07:36:37.805Z,659.33
2022-09-16T07:39:06.243Z,651.58
2022-09-16T07:41:35.842Z,647.28
2022-09-16T07:44:04.789Z,651.45
2022-09-16T07:46:34.874Z,657.75
2022-09-16T07:49:04.203Z,658.95
2022-09-16T07:51:33.081Z,647.95
2022-09-16T07:54:05.572Z,646.90
2022-09-16T07:56:35.586Z,649.97
2022-09-16T07:59:06.250Z,643.30
2022-09-16T08:01:36.337Z,652.90
2022-09-16T08:04:07.028Z,649.25
2022-09-16T08:06:35.217Z,649.25
2022-09-16T08:09:10.454Z,655.08
2022-09-16T08:11:49.141Z,656.08
2022-09-16T08:14:17.101Z,653.67
2022-09-16T08:16:45.116Z,650.85
2022-09-16T08:19:13.053Z,647.28
2022-09-16T08:21:40.916Z,648.70
2022-09-16T08:24:10.666Z,656.53
2022-09-16T08:26:38.821Z,655.20
2022-09-16T08:29:09.808Z,649.80
2022-09-16T08:31:38.692Z,654.10
2022-09-16T08:34:07.244Z,660.67
2022-09-16T08:36:35.200Z,655.40
2022-09-16T08:39:03.406Z,659.67
2022-09-16T08:41:43.854Z,658.28
2022-09-16T08:44:18.260Z,651.42
2022-09-16T08:46:50.259Z,655.83
2022-09-16T08:49:22.889Z,648.08
2022-09-16T08:51:51.488Z,630.28
2022-09-16T08:54:27.867Z,605.17
2022-09-16T08:57:01.820Z,629.40
2022-09-16T08:59:34.423Z,616.58
2022-09-16T09:02:18.483Z,604.53
2022-09-16T09:04:46.762Z,560.83
2022-09-16T09:07:21.253Z,539.30
2022-09-16T09:09:59.482Z,465.25
2022-09-16T09:12:34.879Z,577.00
2022-09-16T09:15:15.686Z,580.40
2022-09-16T09:17:52.715Z,597.95
2022-09-16T09:20:30.741Z,597.30
2022-09-16T09:23:14.281Z,610.72
2022-09-16T09:25:46.864Z,607.33
2022-09-16T09:28:26.083Z,605.03
2022-09-16T09:30:58.209Z,604.95
2022-09-16T09:36:33.179Z,617.05
2022-09-16T09:39:32.580Z,622.78
2022-09-16T09:42:06.143Z,615.55
2022-09-16T09:44:43.062Z,622.60
2022-09-16T09:47:16.944Z,631.92
2022-09-16T09:49:47.864Z,630.40
2022-09-16T09:52:25.434Z,630.38
2022-09-16T09:54:54.269Z,635.30
2022-09-16T09:57:28.630Z,637.72
2022-09-16T10:00:01.978Z,639.85
2022-09-16T10:02:29.875Z,631.83
2022-09-16T10:04:57.949Z,640.83
2022-09-16T10:07:28.756Z,641.13
2022-09-16T10:10:05.449Z,643.92
2022-09-16T10:12:35.808Z,645.38
2022-09-16T10:15:21.926Z,641.97
2022-09-16T10:17:50.820Z,637.03
2022-09-16T10:20:26.921Z,640.10
2022-09-16T10:23:01.790Z,644.25
2022-09-16T10:25:31.674Z,644.60
2022-09-16T10:28:01.335Z,643.97
2022-09-16T10:30:33.766Z,640.90
2022-09-16T10:33:03.157Z,644.33
2022-09-16T10:35:32.759Z,647.35
2022-09-16T10:38:02.940Z,640.50
2022-09-16T10:40:31.313Z,634.22
2022-09-16T10:43:04.451Z,622.67
2022-09-16T10:45:36.309Z,629.45
2022-09-16T10:48:12.764Z,624.60
2022-09-16T10:50:40.882Z,617.75
2022-09-16T10:53:24.411Z,627.47
2022-09-16T10:56:02.109Z,635.95
2022-09-16T10:58:30.216Z,640.60
2022-09-16T11:01:19.230Z,642.70
2022-09-16T11:04:16.350Z,640.13
2022-09-16T11:06:53.438Z,641.92
2022-09-16T11:09:30.223Z,642.22
2022-09-16T11:12:25.185Z,631.65
2022-09-16T11:15:01.034Z,623.85
2022-09-16T11:17:42.779Z,631.35
2022-09-16T11:20:50.731Z,625.22
2022-09-16T11:23:29.061Z,636.05
2022-09-16T11:26:01.981Z,620.63
2022-09-16T11:28:43.299Z,637.42
2022-09-16T11:31:17.542Z,645.05
2022-09-16T11:33:55.167Z,645.13
2022-09-16T11:36:48.334Z,640.65
2022-09-16T11:39:27.201Z,638.22
2022-09-16T11:42:02.528Z,627.25
2022-09-16T11:44:44.177Z,630.65
2022-09-16T11:47:39.969Z,624.83
2022-09-16T11:50:20.918Z,634.78
2022-09-16T11:53:04.300Z,641.20
2022-09-16T11:55:42.757Z,626.55
2022-09-16T11:58:21.660Z,642.95
2022-09-16T12:00:51.015Z,648.72
2022-09-16T12:03:28.062Z,653.65
2022-09-16T12:06:04.658Z,653.13
2022-09-16T12:08:39.590Z,644.80
2022-09-16T12:11:19.301Z,638.58
2022-09-16T12:13:50.094Z,652.55
2022-09-16T12:16:27.126Z,654.30
2022-09-16T12:18:59.770Z,640.08
2022-09-16T12:21:32.821Z,628.88
2022-09-16T12:24:03.097Z,639.80
2022-09-16T12:26:33.746Z,609.05
2022-09-16T12:29:05.433Z,609.53
2022-09-16T12:31:37.256Z,606.42
2022-09-16T12:34:13.266Z,622.95
2022-09-16T12:36:45.521Z,634.53
2022-09-16T12:39:13.637Z,636.22
2022-09-16T12:42:04.460Z,639.55
2022-09-16T12:44:53.261Z,632.95
2022-09-16T12:47:41.921Z,631.28
2022-09-16T12:50:28.885Z,640.95
2022-09-16T12:53:35.553Z,650.55
2022-09-16T12:56:10.244Z,651.85
2022-09-16T12:58:57.880Z,649.08
2022-09-16T13:01:27.081Z,654.72
2022-09-16T13:03:58.290Z,649.95
2022-09-16T13:06:30.081Z,644.75
2022-09-16T13:08:58.474Z,651.88
2022-09-16T13:14:23.619Z,661.25
2022-09-16T13:16:55.484Z,657.38
2022-09-16T13:19:41.225Z,655.13
2022-09-16T13:22:22.115Z,656.90
2022-09-16T13:24:54.673Z,651.63
2022-09-16T13:27:34.457Z,651.38
2022-09-16T13:30:29.156Z,660.95
2022-09-16T13:33:28.050Z,659.47
2022-09-16T13:36:16.765Z,651.70
2022-09-16T13:38:46.928Z,654.50
2022-09-16T13:41:15.666Z,649.05
2022-09-16T13:44:04.981Z,660.17
2022-09-16T13:46:37.612Z,656.15
2022-09-16T13:49:20.335Z,646.97
2022-09-16T13:51:49.533Z,652.45
2022-09-16T13:54:24.331Z,661.60
2022-09-16T13:57:02.578Z,664.90
2022-09-16T13:59:41.944Z,659.97
2022-09-16T14:02:15.992Z,662.45
2022-09-16T14:04:57.823Z,659.28
2022-09-16T14:07:34.000Z,653.28
2022-09-16T14:10:06.942Z,657.88
2022-09-16T14:12:47.409Z,651.78
2022-09-16T14:15:17.316Z,655.75
2022-09-16T14:17:51.364Z,663.35
2022-09-16T14:20:21.449Z,654.28
2022-09-16T14:22:49.432Z,660.15
2022-09-16T14:25:29.789Z,652.00
2022-09-16T14:28:17.169Z,669.67
2022-09-16T14:30:52.001Z,672.05
2022-09-16T14:33:23.275Z,656.75
2022-09-16T14:35:52.164Z,656.30
2022-09-16T14:38:43.805Z,665.30
2022-09-16T14:41:10.744Z,653.83
2022-09-16T14:43:39.362Z,658.38
2022-09-16T14:46:09.201Z,637.88
2022-09-16T14:48:39.837Z,671.20
2022-09-16T14:51:14.042Z,668.47
2022-09-16T14:53:55.426Z,665.13
2022-09-16T14:56:30.397Z,653.80
2022-09-16T14:58:58.910Z,648.03
2022-09-16T15:01:28.904Z,660.00
2022-09-16T15:04:00.088Z,667.15
2022-09-16T15:06:30.394Z,660.05
2022-09-16T15:09:01.307Z,666.15
2022-09-16T15:11:50.523Z,659.83
2022-09-16T15:14:18.686Z,669.00
2022-09-16T15:16:49.656Z,675.05
2022-09-16T15:19:22.660Z,677.13
2022-09-16T15:21:51.883Z,659.75
2022-09-16T15:24:23.144Z,660.53
2022-09-16T15:26:51.128Z,660.42
2022-09-16T15:29:31.945Z,657.00
2022-09-16T15:32:19.616Z,653.70
2022-09-16T15:34:49.701Z,654.28
2022-09-16T15:37:34.155Z,658.63
2022-09-16T15:40:21.719Z,659.08
2022-09-16T15:42:50.536Z,648.80
2022-09-16T15:45:21.140Z,659.45
2022-09-16T15:47:57.752Z,654.00
2022-09-16T15:50:26.998Z,662.40
2022-09-16T15:52:58.708Z,653.00
2022-09-16T15:55:32.681Z,656.42
2022-09-16T15:58:05.012Z,654.72
2022-09-16T16:01:01.853Z,655.83
2022-09-16T16:03:33.716Z,660.65
2022-09-16T16:06:05.022Z,660.10
2022-09-16T16:08:45.948Z,663.00
2022-09-16T16:11:15.204Z,667.90
2022-09-16T16:13:43.942Z,661.65
2022-09-16T16:16:12.959Z,664.03
2022-09-16T16:18:42.747Z,655.78
2022-09-16T16:21:12.426Z,656.17
2022-09-16T16:23:40.411Z,659.75
2022-09-16T16:26:09.377Z,655.35
2022-09-16T16:28:38.561Z,653.88
2022-09-16T16:31:15.035Z,657.63
2022-09-16T16:33:47.679Z,661.10
2022-09-16T16:36:16.841Z,656.97
2022-09-16T16:38:46.314Z,668.83
2022-09-16T16:41:14.345Z,657.55
2022-09-16T16:43:42.285Z,660.88
2022-09-16T16:46:10.133Z,653.72
2022-09-16T16:48:39.177Z,665.78
2022-09-16T16:51:11.216Z,663.63
2022-09-16T16:53:39.616Z,661.00
2022-09-16T16:56:14.495Z,656.90
2022-09-16T16:58:43.403Z,663.88
2022-09-16T17:01:12.931Z,667.75
2022-09-16T17:03:40.853Z,655.65
2022-09-16T17:06:10.465Z,661.35
2022-09-16T17:08:38.769Z,657.70
2022-09-16T17:11:10.496Z,694.30
2022-09-16T17:13:38.877Z,653.50
2022-09-16T17:16:08.716Z,658.70
2022-09-16T17:18:37.749Z,657.92
2022-09-16T17:21:07.682Z,652.33
2022-09-16T17:23:37.192Z,649.55
2022-09-16T17:26:06.489Z,645.55
2022-09-16T17:28:34.444Z,652.65
2022-09-16T17:31:02.338Z,647.53
2022-09-16T17:33:31.026Z,650.53
2022-09-16T17:36:02.674Z,648.88
2022-09-16T17:38:30.484Z,647.05
2022-09-16T17:41:04.422Z,655.78
2022-09-16T17:43:33.033Z,650.13
2022-09-16T17:46:01.534Z,651.45
2022-09-16T17:48:29.781Z,646.40
2022-09-16T17:50:58.242Z,656.92
2022-09-16T17:53:27.375Z,654.70
2022-09-16T17:56:04.867Z,649.47
2022-09-16T17:58:32.881Z,647.00
2022-09-16T18:01:08.203Z,651.00
2022-09-16T18:03:36.657Z,645.10
2022-09-16T18:06:10.001Z,651.90
2022-09-16T18:08:38.372Z,647.70
2022-09-16T18:11:09.111Z,648.77
2022-09-16T18:13:37.524Z,647.73
2022-09-16T18:16:07.186Z,655.57
2022-09-16T18:18:36.705Z,635.33
2022-09-16T18:21:05.515Z,647.27
2022-09-16T18:23:33.701Z,637.43
2022-09-16T18:26:05.357Z,653.87
2022-09-16T18:28:51.933Z,646.63
2022-09-16T18:31:25.169Z,647.50
2022-09-16T18:33:53.386Z,649.60
2022-09-16T18:36:25.412Z,652.65
2022-09-16T18:38:54.244Z,654.85
2022-09-16T18:41:23.589Z,645.10
2022-09-16T18:43:55.689Z,635.30
2022-09-16T18:46:26.733Z,643.45
2022-09-16T18:48:55.564Z,647.88
2022-09-16T18:51:24.849Z,644.13
2022-09-16T18:53:54.318Z,648.78
2022-09-16T18:56:23.949Z,644.10
2022-09-16T18:59:17.256Z,657.27
2022-09-16T19:01:42.912Z,645.15
2022-09-16T19:04:12.208Z,650.70
2022-09-16T19:06:41.972Z,650.50
2022-09-16T19:09:12.284Z,641.22
2022-09-16T19:11:40.477Z,648.03
2022-09-16T19:14:12.571Z,647.42
2022-09-16T19:16:44.226Z,648.63
2022-09-16T19:19:13.509Z,636.72
2022-09-16T19:21:42.173Z,628.28
2022-09-16T19:24:14.971Z,645.70
2022-09-16T19:26:43.683Z,643.27
2022-09-16T19:29:15.161Z,648.93
2022-09-16T19:31:46.234Z,649.43
2022-09-16T19:34:15.814Z,647.17
2022-09-16T19:36:44.173Z,650.03
2022-09-16T19:39:13.333Z,650.87
2022-09-16T19:41:42.506Z,645.87
2022-09-16T19:44:13.920Z,645.37
2022-09-16T19:46:44.660Z,663.00
2022-09-16T19:49:15.965Z,648.97
2022-09-16T19:51:44.114Z,646.70
2022-09-16T19:54:14.138Z,650.43
2022-09-16T19:56:48.166Z,643.50
2022-09-16T19:59:19.007Z,648.13
2022-09-16T20:01:47.615Z,649.40
2022-09-16T20:04:21.136Z,639.57
2022-09-16T20:06:51.863Z,650.93
2022-09-16T20:09:20.325Z,651.27
2022-09-16T20:11:48.885Z,646.67
2022-09-16T20:14:19.046Z,656.80
2022-09-16T20:16:47.273Z,684.40
2022-09-16T20:19:17.961Z,651.93
2022-09-16T20:21:49.122Z,646.47
2022-09-16T20:24:21.608Z,641.87
2022-09-16T20:26:50.150Z,653.63
2022-09-16T20:29:18.530Z,647.93
2022-09-16T20:31:47.769Z,645.72
2022-09-16T20:34:17.224Z,649.77
2022-09-16T20:36:46.158Z,654.07
2022-09-16T20:39:14.623Z,652.57
2022-09-16T20:41:45.664Z,646.83
2022-09-16T20:44:14.818Z,644.90
2022-09-16T20:46:42.645Z,646.47
2022-09-16T20:49:15.332Z,647.00
2022-09-16T20:51:45.017Z,637.80
2022-09-16T20:54:15.623Z,601.85
2022-09-16T20:56:44.940Z,555.17
2022-09-16T20:59:17.706Z,569.28
2022-09-16T21:01:45.653Z,594.42
2022-09-16T21:04:15.209Z,612.27
2022-09-16T21:06:45.044Z,610.70
2022-09-16T21:09:15.189Z,620.60
2022-09-16T21:11:45.321Z,621.92
2022-09-16T21:14:16.416Z,627.33
2022-09-16T21:16:45.397Z,636.20
2022-09-16T21:19:13.791Z,638.23
2022-09-16T21:21:44.903Z,635.70
2022-09-16T21:24:13.166Z,634.53
2022-09-16T21:26:41.871Z,635.23
2022-09-16T21:29:11.705Z,630.97
2022-09-16T21:31:41.489Z,636.97
2022-09-16T21:34:13.284Z,635.77
2022-09-16T21:36:41.636Z,642.13
2022-09-16T21:39:11.337Z,638.47
2022-09-16T21:41:39.213Z,639.53
2022-09-16T21:44:07.743Z,643.00
2022-09-16T21:46:41.478Z,639.03
2022-09-16T21:49:16.954Z,630.40
2022-09-16T21:51:45.166Z,635.33
2022-09-16T21:54:19.623Z,637.93
2022-09-16T21:56:47.873Z,643.67
2022-09-16T21:59:15.966Z,645.47
2022-09-16T22:01:44.060Z,647.93
2022-09-16T22:04:14.749Z,642.60
2022-09-16T22:06:42.841Z,641.20
2022-09-16T22:09:11.668Z,639.77
2022-09-16T22:11:42.136Z,646.93
2022-09-16T22:14:11.140Z,638.67
2022-09-16T22:16:39.537Z,638.60
2022-09-16T22:19:09.244Z,633.10
2022-09-16T22:21:38.806Z,649.63
2022-09-16T22:24:08.076Z,633.87
2022-09-16T22:26:35.916Z,635.47
2022-09-16T22:29:06.264Z,640.40
2022-09-16T22:31:35.229Z,634.10
2022-09-16T22:34:03.523Z,634.53
2022-09-16T22:36:33.445Z,630.80
2022-09-16T22:39:04.843Z,631.67
2022-09-16T22:41:33.459Z,653.40
2022-09-16T22:44:01.561Z,644.37
2022-09-16T22:46:32.906Z,642.30
2022-09-16T22:49:01.263Z,640.00
2022-09-16T22:51:29.826Z,634.90
2022-09-16T22:53:57.797Z,649.53
2022-09-16T22:56:29.314Z,633.43
2022-09-16T22:58:58.145Z,630.90
2022-09-16T23:01:28.829Z,636.53
2022-09-16T23:03:59.548Z,644.03
2022-09-16T23:06:29.010Z,632.90
2022-09-16T23:08:57.239Z,635.07
2022-09-16T23:11:29.709Z,647.97
2022-09-16T23:13:58.184Z,639.37
2022-09-16T23:16:29.739Z,640.13
2022-09-16T23:19:00.364Z,637.50
2022-09-16T23:21:29.213Z,638.13
2022-09-16T23:23:58.549Z,638.47
2022-09-16T23:26:29.867Z,632.77
2022-09-16T23:28:59.664Z,635.73
2022-09-16T23:31:28.916Z,633.37
2022-09-16T23:33:58.778Z,640.70
2022-09-16T23:36:27.593Z,642.03
2022-09-16T23:38:55.633Z,641.67
2022-09-16T23:41:26.791Z,635.93
2022-09-16T23:43:55.806Z,640.30
2022-09-16T23:46:25.329Z,641.00
2022-09-16T23:48:53.768Z,646.23
2022-09-16T23:51:28.032Z,640.67
2022-09-16T23:53:57.227Z,640.97
2022-09-16T23:56:25.254Z,640.10
2022-09-16T23:58:53.268Z,632.87
